Time;durP1;ratioP1;P1;durP2;ratioP2;P2;SDS_P1;SDS_P2;PMS_P1;PMS_P2;Temp;Humidity;BMP_temperature;BMP_pressure;BME280_temperature;BME280_humidity;BME280_pressure;Samples;Min_cycle;Max_cycle;Signal;HPM_P1;HPM_P2
2023/03/18 00:01:04;;;;;;;20.50;13.77;;;;;;;;;;4993124;28;20054;-62
2023/03/18 00:03:32;;;;;;;21.65;14.80;;;;;;;;;;4992893;28;20072;-61
2023/03/18 00:06:10;;;;;;;19.42;14.18;;;;;;;;;;4993387;28;20046;-61
2023/03/18 00:08:39;;;;;;;21.40;14.50;;;;;;;;;;4993091;28;20039;-62
2023/03/18 00:11:07;;;;;;;20.15;13.40;;;;;;;;;;4992783;28;20105;-63
2023/03/18 00:13:34;;;;;;;21.42;14.23;;;;;;;;;;4975591;28;20046;-61
2023/03/18 00:16:03;;;;;;;22.83;14.65;;;;;;;;;;4993109;28;20097;-61
2023/03/18 00:18:31;;;;;;;20.10;14.02;;;;;;;;;;4993228;28;20045;-61
2023/03/18 00:20:59;;;;;;;26.17;15.93;;;;;;;;;;4992818;28;20461;-61
2023/03/18 00:23:27;;;;;;;23.35;15.57;;;;;;;;;;4993161;28;20461;-61
2023/03/18 00:25:56;;;;;;;22.95;15.90;;;;;;;;;;4992974;28;20566;-61
2023/03/18 00:28:24;;;;;;;22.05;15.35;;;;;;;;;;4992779;28;20121;-61
2023/03/18 00:30:52;;;;;;;22.75;15.73;;;;;;;;;;4992830;28;20041;-61
2023/03/18 00:33:20;;;;;;;23.27;16.00;;;;;;;;;;4975198;28;20055;-61
2023/03/18 00:35:47;;;;;;;25.10;16.00;;;;;;;;;;4975291;28;20035;-61
2023/03/18 00:38:19;;;;;;;23.65;16.45;;;;;;;;;;4992663;28;20102;-61
2023/03/18 00:41:00;;;;;;;22.00;15.55;;;;;;;;;;4975276;28;20065;-61
2023/03/18 00:43:32;;;;;;;21.58;14.73;;;;;;;;;;4991509;28;20042;-61
2023/03/18 00:46:02;;;;;;;23.42;14.52;;;;;;;;;;4975263;28;20113;-61
2023/03/18 00:48:30;;;;;;;24.23;15.73;;;;;;;;;;4975281;28;20038;-61
2023/03/18 00:50:57;;;;;;;24.55;15.30;;;;;;;;;;4974968;28;20135;-62
2023/03/18 00:53:25;;;;;;;26.30;15.80;;;;;;;;;;4992848;28;20069;-61
2023/03/18 00:55:52;;;;;;;23.08;15.35;;;;;;;;;;4975320;28;20044;-61
2023/03/18 00:58:20;;;;;;;24.30;15.57;;;;;;;;;;4991362;28;20043;-62
2023/03/18 01:00:47;;;;;;;25.33;16.27;;;;;;;;;;4975081;28;20097;-62
2023/03/18 01:03:16;;;;;;;23.65;15.25;;;;;;;;;;4976823;28;20432;-61
2023/03/18 01:05:44;;;;;;;23.17;15.85;;;;;;;;;;4978496;28;20046;-62
2023/03/18 01:08:11;;;;;;;25.27;15.88;;;;;;;;;;4994741;28;20042;-61
2023/03/18 01:10:39;;;;;;;25.48;16.00;;;;;;;;;;4978355;28;20053;-60
2023/03/18 01:13:08;;;;;;;23.27;15.82;;;;;;;;;;4994655;28;20070;-61
2023/03/18 01:15:36;;;;;;;20.92;14.38;;;;;;;;;;4978743;28;20100;-61
2023/03/18 01:18:04;;;;;;;21.90;15.98;;;;;;;;;;4994606;28;20039;-62
2023/03/18 01:20:31;;;;;;;23.88;15.80;;;;;;;;;;4978158;28;20074;-60
2023/03/18 01:23:00;;;;;;;28.30;18.02;;;;;;;;;;4994442;28;20073;-61
2023/03/18 01:25:27;;;;;;;28.77;16.17;;;;;;;;;;4978131;28;20054;-61
2023/03/18 01:27:55;;;;;;;22.83;14.95;;;;;;;;;;4995922;28;20042;-62
2023/03/18 01:30:22;;;;;;;24.40;14.32;;;;;;;;;;4978244;28;20519;-62
2023/03/18 01:32:52;;;;;;;18.75;12.07;;;;;;;;;;4994282;28;20523;-62
2023/03/18 01:35:20;;;;;;;22.35;11.85;;;;;;;;;;4994163;28;20050;-61
2023/03/18 01:37:50;;;;;;;19.88;12.63;;;;;;;;;;4994244;28;20038;-61
2023/03/18 01:40:17;;;;;;;17.95;11.85;;;;;;;;;;4977957;28;20042;-61
2023/03/18 01:42:48;;;;;;;16.50;10.30;;;;;;;;;;4994010;28;20038;-62
2023/03/18 01:45:18;;;;;;;17.25;11.40;;;;;;;;;;4977830;28;20053;-61
2023/03/18 01:47:48;;;;;;;17.42;11.18;;;;;;;;;;4993861;28;20492;-61
2023/03/18 01:50:23;;;;;;;17.10;10.25;;;;;;;;;;4977784;28;20050;-61
2023/03/18 01:52:52;;;;;;;16.25;10.85;;;;;;;;;;4977473;28;20046;-61
2023/03/18 01:55:22;;;;;;;18.42;10.40;;;;;;;;;;4978010;28;20065;-61
2023/03/18 01:57:50;;;;;;;15.70;10.48;;;;;;;;;;4995075;28;20049;-61
2023/03/18 02:00:18;;;;;;;16.30;10.75;;;;;;;;;;4977530;28;20046;-61
2023/03/18 02:02:47;;;;;;;16.13;10.80;;;;;;;;;;4977379;28;20073;-61
2023/03/18 02:05:20;;;;;;;15.07;10.07;;;;;;;;;;4977486;28;20120;-61
2023/03/18 02:07:48;;;;;;;16.65;10.63;;;;;;;;;;4993665;28;20038;-61
2023/03/18 02:10:18;;;;;;;16.10;9.48;;;;;;;;;;4995000;28;20065;-61
2023/03/18 02:12:49;;;;;;;13.20;8.85;;;;;;;;;;4977203;28;20046;-61
2023/03/18 02:15:26;;;;;;;14.05;8.63;;;;;;;;;;4976414;28;20038;-61
2023/03/18 02:18:06;;;;;;;12.07;7.75;;;;;;;;;;4977125;28;20534;-61
2023/03/18 02:20:34;;;;;;;9.85;6.53;;;;;;;;;;4977015;28;20105;-61
2023/03/18 02:23:12;;;;;;;11.98;7.85;;;;;;;;;;4994547;28;20046;-61
2023/03/18 02:25:42;;;;;;;12.07;7.70;;;;;;;;;;4977025;28;20121;-61
2023/03/18 02:28:13;;;;;;;11.95;7.60;;;;;;;;;;4993177;28;20050;-61
2023/03/18 02:30:46;;;;;;;10.50;6.93;;;;;;;;;;4993105;28;20093;-61
2023/03/18 02:33:16;;;;;;;11.30;7.03;;;;;;;;;;4993118;28;20050;-62
2023/03/18 02:35:50;;;;;;;11.48;6.80;;;;;;;;;;4994397;28;20072;-61
2023/03/18 02:38:18;;;;;;;10.98;7.00;;;;;;;;;;4993061;28;20043;-61
2023/03/18 02:40:47;;;;;;;9.52;6.53;;;;;;;;;;4976727;28;20041;-61
2023/03/18 02:43:19;;;;;;;11.75;7.20;;;;;;;;;;4994101;28;20443;-61
2023/03/18 02:45:58;;;;;;;11.77;7.50;;;;;;;;;;4976790;28;20385;-61
2023/03/18 02:48:28;;;;;;;10.27;6.90;;;;;;;;;;4993125;28;20089;-62
2023/03/18 02:50:56;;;;;;;12.60;8.23;;;;;;;;;;4976458;28;20046;-60
2023/03/18 02:53:23;;;;;;;15.40;7.57;;;;;;;;;;4992660;28;20089;-60
2023/03/18 02:55:51;;;;;;;11.95;8.32;;;;;;;;;;4994011;28;20640;-61
2023/03/18 02:58:20;;;;;;;14.60;8.52;;;;;;;;;;4976402;28;20449;-61
2023/03/18 03:00:52;;;;;;;13.95;8.55;;;;;;;;;;4976402;28;20408;-61
2023/03/18 03:03:20;;;;;;;12.82;7.97;;;;;;;;;;4976680;28;20145;-61
2023/03/18 03:05:48;;;;;;;15.15;8.18;;;;;;;;;;4993828;28;20066;-61
2023/03/18 03:08:16;;;;;;;14.43;8.27;;;;;;;;;;4976211;28;20531;-61
2023/03/18 03:10:46;;;;;;;12.52;8.18;;;;;;;;;;4992595;28;20066;-61
2023/03/18 03:13:15;;;;;;;12.82;7.95;;;;;;;;;;4975879;28;20074;-61
2023/03/18 03:15:43;;;;;;;12.60;8.32;;;;;;;;;;4976312;28;20516;-61
2023/03/18 03:18:12;;;;;;;13.55;8.48;;;;;;;;;;4976009;28;20046;-61
2023/03/18 03:20:40;;;;;;;11.23;8.07;;;;;;;;;;4991994;28;20076;-61
2023/03/18 03:23:09;;;;;;;12.73;8.05;;;;;;;;;;4976016;28;20101;-61
2023/03/18 03:25:37;;;;;;;12.20;7.57;;;;;;;;;;4992090;28;20050;-61
2023/03/18 03:28:05;;;;;;;12.95;7.90;;;;;;;;;;4975917;28;20081;-61
2023/03/18 03:30:33;;;;;;;12.40;7.45;;;;;;;;;;4992034;28;20492;-61
2023/03/18 03:33:01;;;;;;;15.15;8.13;;;;;;;;;;4975893;28;20042;-61
2023/03/18 03:35:29;;;;;;;13.60;7.88;;;;;;;;;;4976273;28;20058;-61
2023/03/18 03:37:58;;;;;;;12.20;7.78;;;;;;;;;;4975640;28;20054;-61
2023/03/18 03:40:26;;;;;;;13.35;7.90;;;;;;;;;;4991999;28;20038;-61
2023/03/18 03:42:54;;;;;;;14.48;9.43;;;;;;;;;;4993313;28;20046;-61
2023/03/18 03:45:21;;;;;;;16.58;10.63;;;;;;;;;;4993092;28;20428;-61
2023/03/18 03:47:50;;;;;;;14.73;10.05;;;;;;;;;;4975724;28;20046;-62
2023/03/18 03:50:18;;;;;;;13.85;10.02;;;;;;;;;;4975468;28;20049;-61
2023/03/18 03:52:46;;;;;;;16.90;10.82;;;;;;;;;;4993120;28;20052;-61
2023/03/18 03:55:14;;;;;;;14.68;7.68;;;;;;;;;;4991610;28;20496;-61
2023/03/18 03:57:42;;;;;;;10.38;6.43;;;;;;;;;;4975643;28;20050;-61
2023/03/18 04:00:12;;;;;;;9.32;6.63;;;;;;;;;;4991777;28;20042;-61
2023/03/18 04:02:46;;;;;;;12.32;6.88;;;;;;;;;;4975576;28;20712;-61
2023/03/18 04:05:17;;;;;;;12.88;6.82;;;;;;;;;;4991797;28;20058;-61
2023/03/18 04:07:45;;;;;;;14.43;6.43;;;;;;;;;;4975511;28;20047;-61
2023/03/18 04:10:14;;;;;;;10.27;6.70;;;;;;;;;;4991840;28;20088;-61
2023/03/18 04:12:42;;;;;;;13.07;6.85;;;;;;;;;;4975642;28;20489;-61
2023/03/18 04:15:12;;;;;;;9.05;6.20;;;;;;;;;;4975757;28;20126;-61
2023/03/18 04:17:41;;;;;;;13.20;6.28;;;;;;;;;;4991601;28;20093;-61
2023/03/18 04:20:10;;;;;;;9.23;5.93;;;;;;;;;;4991482;28;20081;-61
2023/03/18 04:22:39;;;;;;;10.00;5.90;;;;;;;;;;4975516;28;20054;-61
2023/03/18 04:25:09;;;;;;;9.15;4.68;;;;;;;;;;4975390;28;20077;-61
2023/03/18 04:27:39;;;;;;;9.18;5.07;;;;;;;;;;4991554;28;20511;-61
2023/03/18 04:30:10;;;;;;;8.98;5.00;;;;;;;;;;4991500;28;20069;-61
2023/03/18 04:32:51;;;;;;;10.13;4.93;;;;;;;;;;4991435;28;20403;-61
2023/03/18 04:35:19;;;;;;;9.85;5.18;;;;;;;;;;4992442;28;20059;-61
2023/03/18 04:37:49;;;;;;;7.95;4.32;;;;;;;;;;4992521;28;20038;-61
2023/03/18 04:40:17;;;;;;;7.10;3.95;;;;;;;;;;4979010;28;20097;-61
2023/03/18 04:42:46;;;;;;;7.70;4.05;;;;;;;;;;4975706;28;20050;-61
2023/03/18 04:45:16;;;;;;;7.13;4.20;;;;;;;;;;4976453;28;20113;-61
2023/03/18 04:47:44;;;;;;;6.63;4.10;;;;;;;;;;4978788;28;20046;-62
2023/03/18 04:50:13;;;;;;;6.78;4.05;;;;;;;;;;4978956;28;20094;-61
2023/03/18 04:52:41;;;;;;;8.27;3.75;;;;;;;;;;4962755;28;20468;-64
2023/03/18 04:55:15;;;;;;;8.43;3.85;;;;;;;;;;4978640;28;20042;-61
2023/03/18 04:57:43;;;;;;;9.45;4.28;;;;;;;;;;4978629;28;20471;-62
2023/03/18 05:00:20;;;;;;;10.10;4.90;;;;;;;;;;4978647;28;20161;-62
2023/03/18 05:02:52;;;;;;;10.20;4.97;;;;;;;;;;4978429;28;20042;-62
2023/03/18 05:05:23;;;;;;;10.18;4.53;;;;;;;;;;4978548;28;20050;-62
2023/03/18 05:07:52;;;;;;;9.40;5.00;;;;;;;;;;4978464;28;20096;-62
2023/03/18 05:10:21;;;;;;;8.05;4.32;;;;;;;;;;4978420;28;20061;-62
2023/03/18 05:12:49;;;;;;;10.65;4.75;;;;;;;;;;4977171;28;20053;-62
2023/03/18 05:15:26;;;;;;;8.63;4.75;;;;;;;;;;4978177;28;20459;-62
2023/03/18 05:17:57;;;;;;;8.35;4.70;;;;;;;;;;4978564;28;20047;-62
2023/03/18 05:20:25;;;;;;;9.40;4.72;;;;;;;;;;4978179;28;20089;-62
2023/03/18 05:22:53;;;;;;;9.10;4.57;;;;;;;;;;4978191;28;20054;-62
2023/03/18 05:25:34;;;;;;;9.02;4.82;;;;;;;;;;4992527;28;20137;-62
2023/03/18 05:28:03;;;;;;;9.82;5.03;;;;;;;;;;4978467;28;20073;-62
2023/03/18 05:30:41;;;;;;;33.85;16.77;;;;;;;;;;4978528;28;20429;-62
2023/03/18 05:33:13;;;;;;;23.85;14.52;;;;;;;;;;4978077;28;20497;-58
2023/03/18 05:35:47;;;;;;;16.95;11.85;;;;;;;;;;4977632;28;20092;-58
2023/03/18 05:38:18;;;;;;;14.15;7.60;;;;;;;;;;4994214;28;20047;-58
2023/03/18 05:40:46;;;;;;;9.85;7.07;;;;;;;;;;4978349;28;20042;-58
2023/03/18 05:43:22;;;;;;;7.78;4.85;;;;;;;;;;4994106;28;20108;-57
2023/03/18 05:45:56;;;;;;;7.57;4.55;;;;;;;;;;4978034;28;20447;-58
2023/03/18 05:48:35;;;;;;;5.95;3.88;;;;;;;;;;4994051;28;20042;-58
2023/03/18 05:51:05;;;;;;;6.40;3.65;;;;;;;;;;4977878;28;20058;-58
2023/03/18 05:53:35;;;;;;;4.82;3.40;;;;;;;;;;4993480;28;20056;-58
2023/03/18 05:56:18;;;;;;;12.82;5.85;;;;;;;;;;4977575;28;20046;-58
2023/03/18 05:58:50;;;;;;;7.80;4.57;;;;;;;;;;4993785;28;20054;-58
2023/03/18 06:01:25;;;;;;;5.97;3.50;;;;;;;;;;4977578;28;20073;-58
2023/03/18 06:03:54;;;;;;;6.80;3.65;;;;;;;;;;4995020;28;20057;-59
2023/03/18 06:06:22;;;;;;;7.75;3.80;;;;;;;;;;4977543;28;20038;-58
2023/03/18 06:08:49;;;;;;;7.32;3.10;;;;;;;;;;4977446;28;20046;-58
2023/03/18 06:11:17;;;;;;;7.20;3.05;;;;;;;;;;4993803;28;20042;-58
2023/03/18 06:13:44;;;;;;;6.20;4.07;;;;;;;;;;4977477;28;20046;-58
2023/03/18 06:16:13;;;;;;;5.70;3.47;;;;;;;;;;4993410;28;20496;-59
2023/03/18 06:18:40;;;;;;;4.18;2.60;;;;;;;;;;4975618;28;20109;-58
2023/03/18 06:21:09;;;;;;;5.97;3.13;;;;;;;;;;4991834;28;20047;-58
2023/03/18 06:23:37;;;;;;;6.07;2.97;;;;;;;;;;4975591;28;20266;-58
2023/03/18 06:26:07;;;;;;;6.28;3.13;;;;;;;;;;4975781;28;20264;-58
2023/03/18 06:28:43;;;;;;;5.35;3.20;;;;;;;;;;4976162;28;20133;-58
2023/03/18 06:31:10;;;;;;;5.45;3.15;;;;;;;;;;4992436;28;20113;-58
2023/03/18 06:33:38;;;;;;;7.20;2.78;;;;;;;;;;4976136;28;20038;-58
2023/03/18 06:36:09;;;;;;;8.98;2.90;;;;;;;;;;4992282;28;20045;-58
2023/03/18 06:38:43;;;;;;;7.32;3.42;;;;;;;;;;4976051;28;20046;-58
2023/03/18 06:41:12;;;;;;;6.85;2.97;;;;;;;;;;4992297;28;20045;-58
2023/03/18 06:43:50;;;;;;;6.65;3.13;;;;;;;;;;4975901;28;20043;-58
2023/03/18 06:46:18;;;;;;;6.68;3.15;;;;;;;;;;4975919;28;20046;-58
2023/03/18 06:48:47;;;;;;;7.45;2.90;;;;;;;;;;4975734;28;20086;-58
2023/03/18 06:51:21;;;;;;;8.00;2.85;;;;;;;;;;4992393;28;20042;-58
2023/03/18 06:53:50;;;;;;;5.72;2.50;;;;;;;;;;4976005;28;20047;-59
2023/03/18 06:56:17;;;;;;;5.43;2.90;;;;;;;;;;5000048;28;20042;-59
2023/03/18 06:58:58;;;;;;;5.00;2.85;;;;;;;;;;4980162;28;20141;-59
2023/03/18 07:01:29;;;;;;;8.80;2.80;;;;;;;;;;4991325;28;20046;-59
2023/03/18 07:03:57;;;;;;;5.18;2.75;;;;;;;;;;4975650;28;20061;-59
2023/03/18 07:06:26;;;;;;;5.38;2.83;;;;;;;;;;4991841;28;20043;-58
2023/03/18 07:08:54;;;;;;;7.13;3.38;;;;;;;;;;4975676;28;20488;-58
2023/03/18 07:11:22;;;;;;;5.88;2.70;;;;;;;;;;4991649;28;20039;-58
2023/03/18 07:13:50;;;;;;;7.05;3.38;;;;;;;;;;4975537;28;20129;-58
2023/03/18 07:16:26;;;;;;;7.68;3.30;;;;;;;;;;4991592;28;20046;-58
2023/03/18 07:18:57;;;;;;;5.25;2.88;;;;;;;;;;4975531;28;20050;-58
2023/03/18 07:21:25;;;;;;;6.47;3.35;;;;;;;;;;4950667;28;1195348;-58
2023/03/18 07:23:54;;;;;;;9.50;3.97;;;;;;;;;;4992233;28;20050;-58
2023/03/18 07:26:24;;;;;;;7.65;3.95;;;;;;;;;;4992253;28;20154;-58
2023/03/18 07:28:51;;;;;;;7.40;3.30;;;;;;;;;;4976271;28;20050;-58
2023/03/18 07:31:19;;;;;;;8.70;2.70;;;;;;;;;;4991996;28;20147;-58
2023/03/18 07:33:47;;;;;;;5.05;2.75;;;;;;;;;;4975755;28;20050;-58
2023/03/18 07:36:15;;;;;;;6.60;3.05;;;;;;;;;;4992161;28;20039;-58
2023/03/18 07:38:42;;;;;;;9.40;3.30;;;;;;;;;;4993308;28;20096;-59
2023/03/18 07:41:10;;;;;;;8.52;3.05;;;;;;;;;;4993265;28;20038;-58
2023/03/18 07:43:38;;;;;;;7.95;3.72;;;;;;;;;;4993390;28;20152;-59
2023/03/18 07:46:06;;;;;;;5.75;3.40;;;;;;;;;;4993227;28;20051;-58
2023/03/18 07:48:34;;;;;;;5.35;3.13;;;;;;;;;;4993246;28;20104;-58
2023/03/18 07:51:02;;;;;;;11.57;6.60;;;;;;;;;;4993306;28;20093;-58
2023/03/18 07:53:29;;;;;;;9.43;4.78;;;;;;;;;;4993127;28;20500;-58
2023/03/18 07:55:57;;;;;;;5.68;3.20;;;;;;;;;;4993198;28;20053;-58
2023/03/18 07:58:24;;;;;;;6.82;3.15;;;;;;;;;;4993338;28;20089;-57
2023/03/18 08:00:52;;;;;;;7.53;3.08;;;;;;;;;;4993180;28;20056;-58
2023/03/18 08:03:20;;;;;;;6.47;3.80;;;;;;;;;;4992995;28;20046;-58
2023/03/18 08:05:48;;;;;;;6.53;3.10;;;;;;;;;;4993286;28;20125;-58
2023/03/18 08:08:16;;;;;;;6.20;3.33;;;;;;;;;;4993139;28;20046;-58
2023/03/18 08:10:43;;;;;;;11.63;4.53;;;;;;;;;;4992986;28;20062;-59
2023/03/18 08:13:11;;;;;;;7.15;2.95;;;;;;;;;;4994774;28;20054;-59
2023/03/18 08:15:39;;;;;;;5.13;2.35;;;;;;;;;;4997056;28;20097;-58
2023/03/18 08:18:07;;;;;;;8.65;2.30;;;;;;;;;;4997001;28;20046;-58
2023/03/18 08:20:35;;;;;;;3.75;2.03;;;;;;;;;;4996922;28;20050;-59
2023/03/18 08:23:03;;;;;;;5.63;2.55;;;;;;;;;;4997046;28;20050;-59
2023/03/18 08:25:31;;;;;;;5.85;2.50;;;;;;;;;;4996745;28;20420;-58
2023/03/18 08:27:59;;;;;;;5.05;2.50;;;;;;;;;;4996957;28;20069;-58
2023/03/18 08:30:27;;;;;;;4.50;2.78;;;;;;;;;;4996858;28;20042;-59
2023/03/18 08:32:56;;;;;;;8.40;4.80;;;;;;;;;;4979156;28;20058;-58
2023/03/18 08:35:23;;;;;;;17.90;8.05;;;;;;;;;;4996609;28;20043;-58
2023/03/18 08:37:51;;;;;;;8.20;3.92;;;;;;;;;;4996555;28;20045;-58
2023/03/18 08:40:19;;;;;;;5.07;2.20;;;;;;;;;;4996728;28;20445;-58
2023/03/18 08:42:47;;;;;;;11.85;6.28;;;;;;;;;;4996648;28;20047;-59
2023/03/18 08:45:14;;;;;;;7.20;3.50;;;;;;;;;;4996595;28;20065;-58
2023/03/18 08:47:42;;;;;;;8.13;3.60;;;;;;;;;;4996712;28;20072;-59
2023/03/18 08:50:10;;;;;;;5.65;3.20;;;;;;;;;;4996356;28;20053;-58
2023/03/18 08:52:38;;;;;;;5.35;2.30;;;;;;;;;;4996268;28;20092;-58
2023/03/18 08:55:06;;;;;;;7.47;2.58;;;;;;;;;;4996357;28;20046;-58
2023/03/18 08:57:34;;;;;;;15.70;7.75;;;;;;;;;;4996456;28;20388;-60
2023/03/18 09:00:01;;;;;;;6.68;3.20;;;;;;;;;;4996244;28;20043;-58
2023/03/18 09:02:29;;;;;;;25.92;14.63;;;;;;;;;;4996207;28;20408;-58
2023/03/18 09:04:57;;;;;;;8.15;4.88;;;;;;;;;;4996363;28;20057;-58
2023/03/18 09:07:24;;;;;;;6.97;3.00;;;;;;;;;;4996077;28;20145;-58
2023/03/18 09:09:52;;;;;;;5.63;2.88;;;;;;;;;;4996178;28;20058;-59
2023/03/18 09:12:20;;;;;;;7.15;2.22;;;;;;;;;;4996022;28;20493;-59
2023/03/18 09:14:48;;;;;;;10.20;2.33;;;;;;;;;;4996012;28;20043;-60
2023/03/18 09:17:16;;;;;;;5.45;2.70;;;;;;;;;;4996119;28;20042;-59
2023/03/18 09:19:43;;;;;;;4.57;2.30;;;;;;;;;;4996136;28;20068;-59
2023/03/18 09:22:10;;;;;;;5.75;2.83;;;;;;;;;;4996101;28;20038;-59
2023/03/18 09:24:39;;;;;;;6.70;2.80;;;;;;;;;;4996049;28;20393;-58
2023/03/18 09:27:07;;;;;;;6.63;2.72;;;;;;;;;;4995701;28;20444;-59
2023/03/18 09:29:34;;;;;;;8.27;3.92;;;;;;;;;;4995738;28;20046;-59
2023/03/18 09:32:02;;;;;;;4.55;2.20;;;;;;;;;;4995698;28;20117;-57
2023/03/18 09:34:29;;;;;;;5.57;2.70;;;;;;;;;;4995478;28;20050;-58
2023/03/18 09:36:57;;;;;;;5.35;2.30;;;;;;;;;;4995595;28;20505;-59
2023/03/18 09:39:24;;;;;;;8.02;3.85;;;;;;;;;;4995527;28;20565;-59
2023/03/18 09:42:07;;;;;;;6.65;2.88;;;;;;;;;;4995458;28;20065;-58
2023/03/18 09:44:35;;;;;;;3.92;2.10;;;;;;;;;;4987537;28;20101;-58
2023/03/18 09:47:29;;;;;;;3.40;2.53;;;;;;;;;;4995504;28;20046;-58
2023/03/18 09:49:58;;;;;;;4.88;2.38;;;;;;;;;;4980238;28;20050;-58
2023/03/18 09:52:29;;;;;;;5.88;2.38;;;;;;;;;;4995212;28;20077;-58
2023/03/18 09:55:01;;;;;;;6.25;3.28;;;;;;;;;;4995333;28;20042;-58
2023/03/18 09:57:33;;;;;;;4.72;2.65;;;;;;;;;;4994928;28;20050;-58
2023/03/18 10:00:07;;;;;;;4.80;2.38;;;;;;;;;;4995160;28;20129;-58
2023/03/18 10:02:35;;;;;;;8.83;3.10;;;;;;;;;;4995383;28;20050;-58
2023/03/18 10:05:07;;;;;;;5.35;2.85;;;;;;;;;;4995073;28;20666;-58
2023/03/18 10:07:37;;;;;;;6.95;2.70;;;;;;;;;;4994971;28;20070;-58
2023/03/18 10:10:11;;;;;;;7.57;2.88;;;;;;;;;;4994914;28;20404;-58
2023/03/18 10:12:42;;;;;;;6.45;3.75;;;;;;;;;;4994790;28;20050;-58
2023/03/18 10:15:15;;;;;;;5.85;2.67;;;;;;;;;;4994816;28;20531;-58
2023/03/18 10:17:50;;;;;;;7.53;3.63;;;;;;;;;;4994852;28;20069;-58
2023/03/18 10:20:19;;;;;;;4.45;2.55;;;;;;;;;;4994723;28;20050;-58
2023/03/18 10:22:54;;;;;;;4.53;2.60;;;;;;;;;;4994612;28;20065;-58
2023/03/18 10:25:26;;;;;;;6.65;2.90;;;;;;;;;;4994522;28;20596;-59
2023/03/18 10:28:02;;;;;;;4.05;2.20;;;;;;;;;;4994493;28;20038;-59
2023/03/18 10:30:49;;;;;;;6.35;3.08;;;;;;;;;;4994430;28;20050;-59
2023/03/18 10:33:25;;;;;;;5.28;2.88;;;;;;;;;;4994420;28;20050;-58
2023/03/18 10:35:56;;;;;;;3.55;2.40;;;;;;;;;;4993657;28;20077;-58
2023/03/18 10:38:37;;;;;;;9.20;3.35;;;;;;;;;;4994383;28;20049;-59
2023/03/18 10:41:14;;;;;;;3.85;2.55;;;;;;;;;;4994321;28;20042;-59
2023/03/18 10:43:41;;;;;;;7.03;3.10;;;;;;;;;;4994321;28;20401;-59
2023/03/18 10:46:11;;;;;;;4.10;2.50;;;;;;;;;;4992933;28;20034;-59
2023/03/18 10:48:45;;;;;;;6.70;3.05;;;;;;;;;;4994244;28;20062;-58
2023/03/18 10:51:19;;;;;;;29.35;17.65;;;;;;;;;;4994406;28;20092;-59
2023/03/18 10:54:06;;;;;;;11.45;6.13;;;;;;;;;;4994388;28;20042;-59
2023/03/18 10:56:35;;;;;;;7.20;3.30;;;;;;;;;;4994101;28;20074;-58
2023/03/18 10:59:10;;;;;;;6.00;2.80;;;;;;;;;;4994119;28;20042;-59
2023/03/18 11:01:39;;;;;;;6.80;2.78;;;;;;;;;;4994066;28;20572;-59
2023/03/18 11:04:12;;;;;;;7.22;2.60;;;;;;;;;;4993935;28;20042;-58
2023/03/18 11:06:52;;;;;;;12.48;7.88;;;;;;;;;;4994032;28;20172;-59
2023/03/18 11:09:21;;;;;;;5.30;3.05;;;;;;;;;;4993777;28;20046;-59
2023/03/18 11:11:49;;;;;;;5.13;2.63;;;;;;;;;;4993817;28;20038;-59
2023/03/18 11:14:21;;;;;;;6.40;3.83;;;;;;;;;;4993532;28;20042;-59
2023/03/18 11:16:56;;;;;;;7.38;3.35;;;;;;;;;;4993951;28;20056;-59
2023/03/18 11:19:31;;;;;;;7.53;3.13;;;;;;;;;;4993625;28;20092;-58
2023/03/18 11:22:00;;;;;;;;;;;;;;;;;;4993977;28;20501;-59
2023/03/18 11:24:35;;;;;;;6.65;2.42;;;;;;;;;;4993641;28;20340;-59
2023/03/18 11:27:03;;;;;;;5.22;2.33;;;;;;;;;;4993594;28;20112;-58
2023/03/18 11:29:32;;;;;;;5.93;2.60;;;;;;;;;;4993514;28;20383;-58
2023/03/18 11:32:00;;;;;;;5.15;2.80;;;;;;;;;;4993339;28;20046;-59
2023/03/18 11:34:29;;;;;;;5.05;2.42;;;;;;;;;;4993371;28;20076;-59
2023/03/18 11:37:03;;;;;;;6.43;2.83;;;;;;;;;;4993322;28;20404;-59
2023/03/18 11:39:32;;;;;;;13.97;4.67;;;;;;;;;;4993364;28;20077;-59
2023/03/18 11:42:00;;;;;;;9.63;4.10;;;;;;;;;;4993432;28;20088;-58
2023/03/18 11:44:29;;;;;;;7.95;2.63;;;;;;;;;;4993386;28;20501;-58
2023/03/18 11:47:09;;;;;;;5.13;2.80;;;;;;;;;;4993197;28;20038;-58
2023/03/18 11:49:37;;;;;;;6.05;2.72;;;;;;;;;;4993354;28;20484;-59
2023/03/18 11:52:05;;;;;;;7.50;3.40;;;;;;;;;;4993224;28;20065;-58
2023/03/18 11:54:33;;;;;;;5.90;3.15;;;;;;;;;;4991821;28;20105;-59
2023/03/18 11:57:08;;;;;;;4.97;3.08;;;;;;;;;;4993178;28;20161;-59
2023/03/18 11:59:43;;;;;;;5.45;2.85;;;;;;;;;;4993214;28;20073;-59
2023/03/18 12:02:36;;;;;;;4.68;2.60;;;;;;;;;;4993226;28;20508;-58
2023/03/18 12:05:22;;;;;;;3.88;2.70;;;;;;;;;;4977899;28;20105;-59
2023/03/18 12:07:55;;;;;;;6.45;3.20;;;;;;;;;;4991869;28;20042;-59
2023/03/18 12:10:25;;;;;;;8.45;3.40;;;;;;;;;;4993081;28;20073;-58
2023/03/18 12:13:05;;;;;;;7.35;3.03;;;;;;;;;;4993440;28;20452;-59
2023/03/18 12:15:53;;;;;;;5.03;2.60;;;;;;;;;;4975959;28;20117;-58
2023/03/18 12:18:29;;;;;;;7.20;3.05;;;;;;;;;;4993330;28;20527;-59
2023/03/18 12:21:03;;;;;;;4.72;2.63;;;;;;;;;;4993098;28;20066;-58
2023/03/18 12:23:47;;;;;;;4.75;2.67;;;;;;;;;;4975531;28;20034;-58
2023/03/18 12:26:16;;;;;;;;;;;;;;;;;;4993402;28;20066;-58
2023/03/18 12:28:51;;;;;;;4.82;2.63;;;;;;;;;;4992864;28;19931;-58
2023/03/18 12:31:18;;;;;;;8.88;2.92;;;;;;;;;;4993036;28;20547;-58
2023/03/18 12:33:49;;;;;;;7.60;3.30;;;;;;;;;;4992880;28;20038;-58
2023/03/18 12:36:29;;;;;;;5.68;3.00;;;;;;;;;;4992937;28;20389;-57
2023/03/18 12:39:04;;;;;;;6.95;3.47;;;;;;;;;;4992784;28;20049;-58
2023/03/18 12:42:13;;;;;;;6.68;3.00;;;;;;;;;;4992776;28;20042;-57
2023/03/18 12:44:50;;;;;;;4.57;3.22;;;;;;;;;;4951704;29;20525;-58
2023/03/18 12:47:25;;;;;;;7.00;3.75;;;;;;;;;;4951719;29;20071;-58
2023/03/18 12:49:57;;;;;;;5.50;3.03;;;;;;;;;;4977698;28;20138;-58
2023/03/18 12:52:30;;;;;;;6.57;3.50;;;;;;;;;;4992700;28;20046;-58
2023/03/18 12:54:58;;;;;;;10.18;6.40;;;;;;;;;;4992620;28;20053;-58
2023/03/18 12:57:36;;;;;;;7.15;4.05;;;;;;;;;;4992693;28;20070;-59
2023/03/18 13:00:14;;;;;;;7.20;3.75;;;;;;;;;;4995422;28;20492;-58
2023/03/18 13:03:03;;;;;;;5.60;3.03;;;;;;;;;;4978614;28;20133;-58
2023/03/18 13:05:35;;;;;;;5.25;3.03;;;;;;;;;;4996060;28;20117;-58
2023/03/18 13:08:18;;;;;;;5.70;3.05;;;;;;;;;;4996078;28;20396;-58
2023/03/18 13:10:47;;;;;;;4.00;2.90;;;;;;;;;;4996386;28;20117;-59
2023/03/18 13:13:15;;;;;;;7.57;3.08;;;;;;;;;;4996057;28;20496;-59
2023/03/18 13:15:51;;;;;;;6.15;3.40;;;;;;;;;;4995966;28;20054;-59
2023/03/18 13:18:19;;;;;;;5.82;3.20;;;;;;;;;;4996097;28;20045;-59
2023/03/18 13:20:47;;;;;;;5.95;3.33;;;;;;;;;;4996300;28;20066;-58
2023/03/18 13:23:24;;;;;;;10.68;5.05;;;;;;;;;;4996685;28;20555;-59
2023/03/18 13:25:52;;;;;;;5.95;3.13;;;;;;;;;;4997565;28;20398;-59
2023/03/18 13:28:25;;;;;;;6.88;3.83;;;;;;;;;;4995015;28;20042;-59
2023/03/18 13:30:59;;;;;;;6.43;3.20;;;;;;;;;;4978756;28;20042;-58
2023/03/18 13:33:27;;;;;;;8.27;3.28;;;;;;;;;;4978513;28;20456;-58
2023/03/18 13:36:13;;;;;;;7.25;3.65;;;;;;;;;;4994393;28;20039;-58
2023/03/18 13:38:41;;;;;;;7.20;3.35;;;;;;;;;;4995554;28;20448;-58
2023/03/18 13:41:11;;;;;;;7.20;3.17;;;;;;;;;;4995610;28;20149;-58
2023/03/18 13:43:40;;;;;;;6.25;3.28;;;;;;;;;;4995361;28;20042;-58
2023/03/18 13:46:22;;;;;;;8.32;3.55;;;;;;;;;;4995144;28;20046;-59
2023/03/18 13:49:00;;;;;;;4.97;3.15;;;;;;;;;;4995579;28;20050;-59
2023/03/18 13:51:28;;;;;;;5.43;2.70;;;;;;;;;;4995342;28;20080;-58
2023/03/18 13:54:01;;;;;;;4.32;3.00;;;;;;;;;;4995217;28;20042;-59
2023/03/18 13:56:44;;;;;;;9.70;4.07;;;;;;;;;;4995144;28;20070;-58
2023/03/18 13:59:34;;;;;;;7.35;3.70;;;;;;;;;;4995137;28;20045;-59
2023/03/18 14:02:21;;;;;;;7.57;3.33;;;;;;;;;;4995050;28;20113;-58
2023/03/18 14:04:49;;;;;;;6.72;2.97;;;;;;;;;;4994883;28;20481;-59
2023/03/18 14:07:18;;;;;;;9.73;3.10;;;;;;;;;;4995084;28;20096;-58
2023/03/18 14:10:00;;;;;;;6.72;3.35;;;;;;;;;;4994238;28;20038;-59
2023/03/18 14:12:46;;;;;;;6.30;3.60;;;;;;;;;;4994833;28;20042;-58
2023/03/18 14:15:14;;;;;;;8.32;3.40;;;;;;;;;;4994743;28;20050;-58
2023/03/18 14:17:57;;;;;;;4.93;3.00;;;;;;;;;;4994741;28;20042;-58
2023/03/18 14:20:36;;;;;;;8.85;3.50;;;;;;;;;;4994976;28;20117;-58
2023/03/18 14:23:26;;;;;;;6.47;3.10;;;;;;;;;;4977788;28;20076;-58
2023/03/18 14:26:04;;;;;;;5.57;2.97;;;;;;;;;;4994722;28;20039;-59
2023/03/18 14:28:39;;;;;;;7.88;4.05;;;;;;;;;;4994613;28;20052;-59
2023/03/18 14:31:14;;;;;;;10.23;4.20;;;;;;;;;;4994530;28;20034;-59
2023/03/18 14:34:11;;;;;;;9.10;4.47;;;;;;;;;;4994761;28;20042;-59
2023/03/18 14:36:45;;;;;;;7.88;4.32;;;;;;;;;;4985694;28;20086;-59
2023/03/18 14:39:15;;;;;;;5.47;3.25;;;;;;;;;;4994439;28;20469;-59
2023/03/18 14:41:45;;;;;;;6.85;3.92;;;;;;;;;;4994387;28;20447;-59
2023/03/18 14:44:21;;;;;;;6.22;3.70;;;;;;;;;;4994185;28;20101;-59
2023/03/18 14:46:50;;;;;;;6.25;3.65;;;;;;;;;;4994218;28;20050;-59
2023/03/18 14:49:37;;;;;;;7.55;4.10;;;;;;;;;;4994063;28;20496;-59
2023/03/18 14:52:17;;;;;;;6.93;3.42;;;;;;;;;;4994421;28;20440;-59
2023/03/18 14:54:46;;;;;;;8.52;3.50;;;;;;;;;;4994081;28;20038;-59
2023/03/18 14:57:15;;;;;;;5.63;3.30;;;;;;;;;;4994430;28;20053;-60
2023/03/18 14:59:43;;;;;;;6.38;3.25;;;;;;;;;;4994115;28;20408;-60